createdAt,value
2023-01-22T00:01:20.199Z,100465.53
2023-01-22T00:03:49.775Z,100460.38
2023-01-22T00:06:18.081Z,100468.63
2023-01-22T00:08:46.904Z,100467.41
2023-01-22T00:11:16.330Z,100474.03
2023-01-22T00:13:45.029Z,100474.84
2023-01-22T00:16:15.499Z,100476.69
2023-01-22T00:18:44.183Z,100472.56
2023-01-22T00:21:13.917Z,100481.22
2023-01-22T00:23:41.829Z,100478.97
2023-01-22T00:26:16.402Z,100474.91
2023-01-22T00:28:46.058Z,100474.34
2023-01-22T00:31:16.504Z,100479.25
2023-01-22T00:33:45.662Z,100482.41
2023-01-22T00:36:20.154Z,100483.66
2023-01-22T00:38:50.578Z,100493.41
2023-01-22T00:41:19.931Z,100489.47
2023-01-22T00:43:48.138Z,100489.09
2023-01-22T00:46:17.933Z,100483.41
2023-01-22T00:48:45.836Z,100489.88
2023-01-22T00:51:15.860Z,100503.31
2023-01-22T00:53:46.638Z,100504.63
2023-01-22T00:56:15.186Z,100506.59
2023-01-22T00:58:43.199Z,100505.00
2023-01-22T01:01:14.537Z,100513.19
2023-01-22T01:03:42.748Z,100514.59
2023-01-22T01:06:22.135Z,100511.72
2023-01-22T01:08:50.489Z,100507.25
2023-01-22T01:11:30.267Z,100507.00
2023-01-22T01:13:58.167Z,100508.94
2023-01-22T01:16:30.033Z,100508.94
2023-01-22T01:19:05.889Z,100516.69
2023-01-22T01:21:35.015Z,100517.97
2023-01-22T01:24:02.973Z,100518.72
2023-01-22T01:26:31.416Z,100512.59
2023-01-22T01:28:59.282Z,100522.69
2023-01-22T01:31:27.674Z,100521.22
2023-01-22T01:33:58.599Z,100525.88
2023-01-22T01:36:47.100Z,100522.56
2023-01-22T01:39:14.675Z,100524.75
2023-01-22T01:41:44.457Z,100523.31
2023-01-22T01:44:21.023Z,100527.84
2023-01-22T01:46:54.515Z,100533.41
2023-01-22T01:49:35.348Z,100527.56
2023-01-22T01:52:09.571Z,100529.88
2023-01-22T01:54:43.159Z,100541.03
2023-01-22T01:57:22.406Z,100539.25
2023-01-22T01:59:52.054Z,100541.81
2023-01-22T02:02:20.925Z,100548.75
2023-01-22T02:04:51.495Z,100545.94
2023-01-22T02:07:20.845Z,100542.50
2023-01-22T02:09:48.790Z,100548.16
2023-01-22T02:12:16.999Z,100545.84
2023-01-22T02:14:46.838Z,100539.53
2023-01-22T02:17:19.209Z,100545.56
2023-01-22T02:19:47.826Z,100544.91
2023-01-22T02:22:21.411Z,100532.50
2023-01-22T02:24:50.375Z,100545.22
2023-01-22T02:27:20.793Z,100540.28
2023-01-22T02:29:50.118Z,100548.28
2023-01-22T02:32:18.821Z,100547.22
2023-01-22T02:34:46.720Z,100545.00
2023-01-22T02:37:16.027Z,100547.13
2023-01-22T02:39:43.883Z,100547.81
2023-01-22T02:42:12.457Z,100544.75
2023-01-22T02:44:42.001Z,100550.00
2023-01-22T02:47:11.278Z,100548.81
2023-01-22T02:49:39.163Z,100548.38
2023-01-22T02:52:07.951Z,100551.31
2023-01-22T02:54:36.616Z,100544.53
2023-01-22T02:57:04.857Z,100547.47
2023-01-22T02:59:32.767Z,100558.09
2023-01-22T03:02:02.332Z,100555.06
2023-01-22T03:04:30.208Z,100556.09
2023-01-22T03:06:58.386Z,100557.81
2023-01-22T03:09:30.082Z,100559.44
2023-01-22T03:11:59.251Z,100553.19
2023-01-22T03:14:49.722Z,100552.34
2023-01-22T03:17:38.167Z,100545.72
2023-01-22T03:20:25.218Z,100555.41
2023-01-22T03:22:54.403Z,100548.06
2023-01-22T03:25:22.257Z,100542.56
2023-01-22T03:28:16.656Z,100540.38
2023-01-22T03:30:49.617Z,100546.91
2023-01-22T03:33:19.157Z,100549.25
2023-01-22T03:35:50.176Z,100550.19
2023-01-22T03:38:22.613Z,100553.97
2023-01-22T03:40:50.539Z,100544.22
2023-01-22T03:43:20.377Z,100543.75
2023-01-22T03:45:48.691Z,100541.66
2023-01-22T03:48:20.979Z,100551.84
2023-01-22T03:50:49.378Z,100547.72
2023-01-22T03:53:18.804Z,100558.75
2023-01-22T03:55:46.716Z,100576.22
2023-01-22T03:58:14.898Z,100587.06
2023-01-22T04:00:42.811Z,100575.38
2023-01-22T04:03:12.349Z,100575.31
2023-01-22T04:05:41.571Z,100585.53
2023-01-22T04:08:09.867Z,100588.59
2023-01-22T04:10:42.887Z,100593.47
2023-01-22T04:13:11.163Z,100585.47
2023-01-22T04:15:44.917Z,100586.38
2023-01-22T04:18:39.247Z,100596.69
2023-01-22T04:21:22.050Z,100598.88
2023-01-22T04:23:59.160Z,100594.34
2023-01-22T04:26:27.115Z,100599.50
2023-01-22T04:28:57.427Z,100591.63
2023-01-22T04:31:26.397Z,100597.00
2023-01-22T04:34:16.044Z,100595.47
2023-01-22T04:36:54.217Z,100601.47
2023-01-22T04:39:24.544Z,100600.81
2023-01-22T04:41:52.467Z,100605.50
2023-01-22T04:44:21.099Z,100615.72
2023-01-22T04:46:49.125Z,100620.44
2023-01-22T04:49:17.331Z,100622.91
2023-01-22T04:51:46.248Z,100621.91
2023-01-22T04:54:14.457Z,100625.41
2023-01-22T04:56:42.328Z,100625.69
2023-01-22T04:59:11.407Z,100629.09
2023-01-22T05:01:42.697Z,100627.47
2023-01-22T05:04:11.333Z,100642.56
2023-01-22T05:06:39.237Z,100635.81
2023-01-22T05:09:07.479Z,100628.75
2023-01-22T05:11:50.404Z,100634.09
2023-01-22T05:14:19.047Z,100644.34
2023-01-22T05:16:49.600Z,100635.94
2023-01-22T05:19:17.967Z,100641.81
2023-01-22T05:21:46.220Z,100652.03
2023-01-22T05:24:18.820Z,100651.25
2023-01-22T05:26:46.818Z,100647.94
2023-01-22T05:29:20.143Z,100649.13
2023-01-22T05:32:14.087Z,100652.72
2023-01-22T05:34:47.098Z,100656.91
2023-01-22T05:37:15.057Z,100654.69
2023-01-22T05:39:43.405Z,100666.34
2023-01-22T05:42:16.300Z,100663.59
2023-01-22T05:44:48.847Z,100665.25
2023-01-22T05:47:20.122Z,100672.81
2023-01-22T05:50:10.198Z,100671.84
2023-01-22T05:52:38.048Z,100681.94
2023-01-22T05:55:06.738Z,100681.91
2023-01-22T05:57:41.898Z,100685.00
2023-01-22T06:00:12.461Z,100693.91
2023-01-22T06:02:44.583Z,100691.97
2023-01-22T06:05:15.217Z,100691.03
2023-01-22T06:07:45.688Z,100700.91
2023-01-22T06:10:13.957Z,100709.69
2023-01-22T06:12:47.580Z,100716.75
2023-01-22T06:15:16.063Z,100719.50
2023-01-22T06:17:49.243Z,100714.53
2023-01-22T06:20:17.762Z,100724.25
2023-01-22T06:22:45.932Z,100725.56
2023-01-22T06:25:14.233Z,100726.09
2023-01-22T06:27:59.742Z,100734.16
2023-01-22T06:30:28.049Z,100735.75
2023-01-22T06:32:56.194Z,100733.25
2023-01-22T06:35:25.721Z,100735.84
2023-01-22T06:37:54.380Z,100738.28
2023-01-22T06:40:24.090Z,100734.97
2023-01-22T06:42:52.099Z,100743.59
2023-01-22T06:45:21.062Z,100744.81
2023-01-22T06:47:53.361Z,100744.97
2023-01-22T06:50:21.543Z,100749.16
2023-01-22T06:52:49.441Z,100762.13
2023-01-22T06:55:18.746Z,100760.31
2023-01-22T06:57:47.303Z,100762.78
2023-01-22T07:00:16.161Z,100763.34
2023-01-22T07:02:44.411Z,100758.75
2023-01-22T07:05:12.794Z,100749.84
2023-01-22T07:07:40.632Z,100750.94
2023-01-22T07:10:10.161Z,100752.63
2023-01-22T07:12:38.072Z,100756.41
2023-01-22T07:15:08.139Z,100754.88
2023-01-22T07:17:37.699Z,100756.28
2023-01-22T07:20:06.158Z,100761.59
2023-01-22T07:22:34.071Z,100760.53
2023-01-22T07:25:02.374Z,100764.88
2023-01-22T07:27:32.690Z,100771.22
2023-01-22T07:30:01.160Z,100777.09
2023-01-22T07:32:29.162Z,100784.84
2023-01-22T07:34:57.333Z,100796.47
2023-01-22T07:37:25.232Z,100802.03
2023-01-22T07:39:54.077Z,100798.38
2023-01-22T07:42:21.979Z,100806.03
2023-01-22T07:44:50.322Z,100812.69
2023-01-22T07:47:18.315Z,100815.44
2023-01-22T07:49:46.599Z,100816.13
2023-01-22T07:52:14.579Z,100815.34
2023-01-22T07:54:42.906Z,100815.00
2023-01-22T07:57:15.762Z,100828.66
2023-01-22T07:59:44.028Z,100832.84
2023-01-22T08:02:16.453Z,100837.13
2023-01-22T08:04:44.640Z,100834.47
2023-01-22T08:07:17.045Z,100837.50
2023-01-22T08:09:46.269Z,100839.63
2023-01-22T08:12:14.078Z,100841.38
2023-01-22T08:14:42.262Z,100840.31
2023-01-22T08:17:10.122Z,100851.53
2023-01-22T08:19:38.332Z,100844.50
2023-01-22T08:22:06.443Z,100850.75
2023-01-22T08:24:34.871Z,100858.00
2023-01-22T08:27:03.311Z,100849.31
2023-01-22T08:29:31.574Z,100848.03
2023-01-22T08:31:59.491Z,100845.25
2023-01-22T08:34:27.994Z,100845.91
2023-01-22T08:36:56.093Z,100848.38
2023-01-22T08:39:24.463Z,100851.00
2023-01-22T08:41:57.511Z,100849.47
2023-01-22T08:44:27.160Z,100855.53
2023-01-22T08:46:55.023Z,100861.88
2023-01-22T08:49:23.322Z,100873.88
2023-01-22T08:51:51.200Z,100874.66
2023-01-22T08:54:21.713Z,100865.69
2023-01-22T08:56:49.781Z,100870.81
2023-01-22T08:59:17.919Z,100861.19
2023-01-22T09:01:45.837Z,100879.00
2023-01-22T09:04:13.994Z,100870.88
2023-01-22T09:06:43.059Z,100875.22
2023-01-22T09:09:12.602Z,100882.34
2023-01-22T09:11:41.055Z,100884.88
2023-01-22T09:14:10.199Z,100890.44
2023-01-22T09:16:38.314Z,100890.22
2023-01-22T09:19:07.919Z,100899.78
2023-01-22T09:21:37.566Z,100903.97
2023-01-22T09:24:07.034Z,100904.81
2023-01-22T09:26:37.420Z,100906.97
2023-01-22T09:29:07.318Z,100909.53
2023-01-22T09:31:37.158Z,100915.06
2023-01-22T09:34:06.560Z,100907.78
2023-01-22T09:36:34.579Z,100913.94
2023-01-22T09:39:02.769Z,100915.53
2023-01-22T09:41:38.997Z,100918.09
2023-01-22T09:44:20.291Z,100914.84
2023-01-22T09:47:04.058Z,100908.22
2023-01-22T09:49:37.164Z,100910.56
2023-01-22T09:52:06.639Z,100918.66
2023-01-22T09:54:34.950Z,100919.09
2023-01-22T09:57:06.368Z,100917.22
2023-01-22T09:59:53.099Z,100909.59
2023-01-22T10:02:35.448Z,100905.16
2023-01-22T10:05:32.133Z,100910.09
2023-01-22T10:08:21.889Z,100915.25
2023-01-22T10:10:52.270Z,100911.94
2023-01-22T10:13:27.730Z,100907.50
2023-01-22T10:15:56.829Z,100912.50
2023-01-22T10:18:37.808Z,100910.38
2023-01-22T10:21:18.652Z,100912.59
2023-01-22T10:23:47.299Z,100917.94
2023-01-22T10:26:25.400Z,100917.56
2023-01-22T10:28:58.582Z,100912.88
2023-01-22T10:31:35.840Z,100915.75
2023-01-22T10:34:31.561Z,100915.78
2023-01-22T10:37:15.348Z,100919.69
2023-01-22T10:39:46.397Z,100909.94
2023-01-22T10:42:23.314Z,100911.88
2023-01-22T10:44:57.130Z,100914.34
2023-01-22T10:47:27.802Z,100908.94
2023-01-22T10:50:12.801Z,100902.88
2023-01-22T10:52:48.165Z,100898.22
2023-01-22T10:55:28.500Z,100894.28
2023-01-22T10:58:05.040Z,100894.78
2023-01-22T11:00:46.660Z,100890.06
2023-01-22T11:03:39.759Z,100893.22
2023-01-22T11:06:15.598Z,100890.47
2023-01-22T11:08:57.421Z,100889.00
2023-01-22T11:11:32.183Z,100886.69
2023-01-22T11:14:00.381Z,100885.72
2023-01-22T11:16:32.470Z,100883.50
2023-01-22T11:19:16.788Z,100893.63
2023-01-22T11:21:50.700Z,100883.34
2023-01-22T11:24:26.437Z,100888.78
2023-01-22T11:27:20.811Z,100879.38
2023-01-22T11:29:52.059Z,100872.97
2023-01-22T11:32:22.981Z,100876.41
2023-01-22T11:35:15.246Z,100870.19
2023-01-22T11:38:17.815Z,100874.50
2023-01-22T11:41:17.046Z,100863.69
2023-01-22T11:43:47.884Z,100868.00
2023-01-22T11:46:41.147Z,100865.47
2023-01-22T11:49:19.590Z,100856.63
2023-01-22T11:52:19.248Z,100862.31
2023-01-22T11:55:22.957Z,100862.59
2023-01-22T11:58:01.727Z,100857.00
2023-01-22T12:00:53.968Z,100850.72
2023-01-22T12:04:00.872Z,100850.63
2023-01-22T12:06:28.838Z,100855.88
2023-01-22T12:09:04.628Z,100856.25
2023-01-22T12:11:41.253Z,100846.03
2023-01-22T12:14:27.786Z,100849.50
2023-01-22T12:17:36.319Z,100851.75
2023-01-22T12:20:32.211Z,100845.53
2023-01-22T12:23:08.931Z,100848.88
2023-01-22T12:25:44.389Z,100849.13
2023-01-22T12:28:15.590Z,100847.41
2023-01-22T12:31:14.464Z,100853.38
2023-01-22T12:33:44.267Z,100846.06
2023-01-22T12:36:19.948Z,100841.38
2023-01-22T12:39:15.392Z,100850.06
2023-01-22T12:42:02.193Z,100839.00
2023-01-22T12:45:14.077Z,100842.34
2023-01-22T12:47:45.510Z,100845.78
2023-01-22T12:50:22.146Z,100851.63
2023-01-22T12:53:02.879Z,100848.16
2023-01-22T12:55:44.075Z,100850.56
2023-01-22T12:58:23.563Z,100845.31
2023-01-22T13:01:03.421Z,100851.72
2023-01-22T13:03:33.474Z,100843.44
2023-01-22T13:06:04.359Z,100857.09
2023-01-22T13:08:42.565Z,100854.69
2023-01-22T13:11:14.172Z,100856.53
2023-01-22T13:13:53.979Z,100845.53
2023-01-22T13:16:35.532Z,100856.44
2023-01-22T13:19:28.564Z,100858.09
2023-01-22T13:22:01.028Z,100860.59
2023-01-22T13:24:29.462Z,100859.53
2023-01-22T13:27:03.246Z,100857.59
2023-01-22T13:29:37.935Z,100864.41
2023-01-22T13:32:16.864Z,100869.94
2023-01-22T13:34:45.306Z,100871.00
2023-01-22T13:37:27.264Z,100862.75
2023-01-22T13:39:55.622Z,100866.91
2023-01-22T13:42:24.978Z,100872.91
2023-01-22T13:44:53.387Z,100876.81
2023-01-22T13:47:29.542Z,100879.13
2023-01-22T13:49:59.550Z,100881.22
2023-01-22T13:52:33.589Z,100879.72
2023-01-22T13:55:07.065Z,100881.50
2023-01-22T13:57:35.134Z,100881.22
2023-01-22T14:00:04.734Z,100881.66
2023-01-22T14:02:35.869Z,100891.88
2023-01-22T14:05:04.563Z,100886.81
2023-01-22T14:07:35.190Z,100889.34
2023-01-22T14:10:33.961Z,100892.19
2023-01-22T14:13:05.066Z,100894.56
2023-01-22T14:15:34.719Z,100899.50
2023-01-22T14:18:21.465Z,100895.44
2023-01-22T14:20:49.743Z,100902.53
2023-01-22T14:23:17.639Z,100910.47
2023-01-22T14:25:51.338Z,100912.56
2023-01-22T14:28:20.127Z,100908.66
2023-01-22T14:30:49.877Z,100905.53
2023-01-22T14:33:32.516Z,100903.66
2023-01-22T14:36:01.402Z,100907.72
2023-01-22T14:38:29.511Z,100913.75
2023-01-22T14:40:57.912Z,100908.47
2023-01-22T14:43:25.926Z,100919.19
2023-01-22T14:45:55.235Z,100920.06
2023-01-22T14:48:23.542Z,100924.00
2023-01-22T14:50:52.022Z,100921.50
2023-01-22T14:53:19.964Z,100925.25
2023-01-22T14:55:48.292Z,100921.06
2023-01-22T14:58:16.612Z,100930.44
2023-01-22T15:00:45.775Z,100922.59
2023-01-22T15:03:13.875Z,100925.47
2023-01-22T15:05:42.152Z,100926.59
2023-01-22T15:08:10.167Z,100927.69
2023-01-22T15:10:38.532Z,100927.41
2023-01-22T15:13:06.514Z,100926.44
2023-01-22T15:15:34.862Z,100927.84
2023-01-22T15:18:02.784Z,100935.94
2023-01-22T15:20:31.134Z,100925.66
2023-01-22T15:22:59.183Z,100931.44
2023-01-22T15:25:27.571Z,100937.38
2023-01-22T15:27:55.573Z,100936.09
2023-01-22T15:30:23.947Z,100945.53
2023-01-22T15:32:51.901Z,100939.03
2023-01-22T15:35:20.213Z,100952.94
2023-01-22T15:37:48.721Z,100955.75
2023-01-22T15:40:17.848Z,100954.16
2023-01-22T15:42:46.093Z,100953.63
2023-01-22T15:45:15.538Z,100951.00
2023-01-22T15:47:43.618Z,100959.25
2023-01-22T15:50:12.154Z,100954.63
2023-01-22T15:52:40.101Z,100955.59
2023-01-22T15:55:08.848Z,100953.72
2023-01-22T15:57:36.888Z,100956.34
2023-01-22T16:00:07.863Z,100957.16
2023-01-22T16:02:40.408Z,100961.00
2023-01-22T16:05:09.027Z,100953.31
2023-01-22T16:07:36.953Z,100960.44
2023-01-22T16:10:06.183Z,100965.88
2023-01-22T16:12:35.102Z,100971.47
2023-01-22T16:15:03.562Z,100973.47
2023-01-22T16:17:31.513Z,100965.88
2023-01-22T16:19:59.821Z,100974.47
2023-01-22T16:22:28.023Z,100976.75
2023-01-22T16:24:56.344Z,100974.28
2023-01-22T16:27:24.348Z,100968.84
2023-01-22T16:29:52.574Z,100982.38
2023-01-22T16:32:20.691Z,100985.84
2023-01-22T16:34:50.190Z,100993.22
2023-01-22T16:37:18.128Z,100995.31
2023-01-22T16:39:46.311Z,100992.75
2023-01-22T16:42:14.285Z,100994.81
2023-01-22T16:44:42.726Z,101003.44
2023-01-22T16:47:10.823Z,100997.13
2023-01-22T16:49:39.091Z,101009.66
2023-01-22T16:52:21.884Z,101000.66
2023-01-22T16:54:51.532Z,101012.22
2023-01-22T16:57:20.377Z,101012.50
2023-01-22T16:59:49.721Z,101011.03
2023-01-22T17:02:19.482Z,101011.44
2023-01-22T17:04:48.218Z,101011.00
2023-01-22T17:07:31.870Z,101020.00
2023-01-22T17:10:01.589Z,101012.22
2023-01-22T17:12:29.602Z,101012.41
2023-01-22T17:14:58.414Z,101019.13
2023-01-22T17:17:26.617Z,101019.34
2023-01-22T17:19:55.416Z,101021.69
2023-01-22T17:22:24.419Z,101029.50
2023-01-22T17:24:52.879Z,101018.53
2023-01-22T17:27:21.732Z,101023.00
2023-01-22T17:29:50.047Z,101019.44
2023-01-22T17:32:17.991Z,101025.25
2023-01-22T17:34:47.589Z,101024.44
2023-01-22T17:37:15.583Z,101033.34
2023-01-22T17:39:46.308Z,101034.03
2023-01-22T17:42:14.358Z,101039.09
2023-01-22T17:44:42.681Z,101030.50
2023-01-22T17:47:11.325Z,101031.09
2023-01-22T17:49:39.771Z,101030.47
2023-01-22T17:52:09.503Z,101028.31
2023-01-22T17:54:38.629Z,101030.00
2023-01-22T17:57:07.163Z,101028.00
2023-01-22T17:59:35.504Z,101032.56
2023-01-22T18:02:03.828Z,101028.72
2023-01-22T18:04:34.774Z,101032.06
2023-01-22T18:07:04.028Z,101035.09
2023-01-22T18:09:32.404Z,101044.19
2023-01-22T18:12:00.637Z,101046.84
2023-01-22T18:14:34.208Z,101047.06
2023-01-22T18:17:02.760Z,101052.19
2023-01-22T18:19:30.759Z,101048.50
2023-01-22T18:21:59.091Z,101053.34
2023-01-22T18:24:27.547Z,101060.28
2023-01-22T18:26:58.868Z,101067.59
2023-01-22T18:29:27.389Z,101074.28
2023-01-22T18:31:55.758Z,101074.25
2023-01-22T18:34:24.152Z,101078.06
2023-01-22T18:36:52.542Z,101070.53
2023-01-22T18:39:21.445Z,101077.44
2023-01-22T18:41:49.809Z,101078.63
2023-01-22T18:44:19.773Z,101074.38
2023-01-22T18:46:52.819Z,101085.72
2023-01-22T18:49:20.748Z,101086.78
2023-01-22T18:51:49.627Z,101092.91
2023-01-22T18:54:17.733Z,101092.91
2023-01-22T18:56:47.440Z,101100.38
2023-01-22T18:59:18.181Z,101098.25
2023-01-22T19:01:51.976Z,101114.78
2023-01-22T19:04:22.178Z,101126.38
2023-01-22T19:06:52.999Z,101120.75
2023-01-22T19:09:21.800Z,101130.47
2023-01-22T19:11:52.641Z,101129.88
2023-01-22T19:14:22.536Z,101137.94
2023-01-22T19:16:53.576Z,101133.00
2023-01-22T19:19:25.133Z,101141.69
2023-01-22T19:21:55.639Z,101140.22
2023-01-22T19:24:28.464Z,101138.25
2023-01-22T19:26:57.736Z,101142.72
2023-01-22T19:29:26.749Z,101145.22
2023-01-22T19:31:55.962Z,101139.75
2023-01-22T19:34:24.955Z,101139.34
2023-01-22T19:37:01.665Z,101140.19
2023-01-22T19:39:31.349Z,101135.72
2023-01-22T19:42:05.377Z,101137.69
2023-01-22T19:44:36.269Z,101153.94
2023-01-22T19:47:04.368Z,101147.03
2023-01-22T19:49:32.951Z,101140.41
2023-01-22T19:52:00.958Z,101140.38
2023-01-22T19:54:29.290Z,101147.16
2023-01-22T19:56:57.229Z,101145.50
2023-01-22T19:59:25.608Z,101145.72
2023-01-22T20:01:54.572Z,101148.13
2023-01-22T20:04:25.801Z,101139.75
2023-01-22T20:06:59.979Z,101140.44
2023-01-22T20:09:30.050Z,101145.44
2023-01-22T20:11:58.417Z,101143.50
2023-01-22T20:14:30.553Z,101137.56
2023-01-22T20:17:00.410Z,101142.16
2023-01-22T20:19:30.674Z,101132.19
2023-01-22T20:22:00.842Z,101143.06
2023-01-22T20:24:29.188Z,101137.56
2023-01-22T20:26:58.749Z,101140.13
2023-01-22T20:29:27.618Z,101146.63
2023-01-22T20:31:56.929Z,101134.72
2023-01-22T20:34:26.119Z,101137.38
2023-01-22T20:36:54.092Z,101144.31
2023-01-22T20:39:22.452Z,101146.31
2023-01-22T20:41:50.491Z,101144.16
2023-01-22T20:44:18.883Z,101145.50
2023-01-22T20:46:48.989Z,101136.22
2023-01-22T20:49:17.330Z,101136.06
2023-01-22T20:51:45.381Z,101135.94
2023-01-22T20:54:14.133Z,101129.81
2023-01-22T20:56:42.163Z,101127.66
2023-01-22T20:59:14.131Z,101133.03
2023-01-22T21:01:42.273Z,101129.78
2023-01-22T21:04:12.948Z,101127.13
2023-01-22T21:06:41.635Z,101133.19
2023-01-22T21:09:10.884Z,101127.78
2023-01-22T21:11:41.207Z,101130.88
2023-01-22T21:14:16.088Z,101132.59
2023-01-22T21:16:44.847Z,101123.16
2023-01-22T21:19:18.069Z,101124.13
2023-01-22T21:21:46.718Z,101126.63
2023-01-22T21:24:15.573Z,101129.25
2023-01-22T21:26:43.758Z,101120.22
2023-01-22T21:29:18.296Z,101115.44
2023-01-22T21:31:50.342Z,101111.81
2023-01-22T21:34:21.004Z,101110.50
2023-01-22T21:36:50.437Z,101108.84
2023-01-22T21:39:20.874Z,101111.06
2023-01-22T21:41:49.277Z,101111.56
2023-01-22T21:44:38.466Z,101109.53
2023-01-22T21:47:06.468Z,101099.66
2023-01-22T21:49:36.394Z,101100.75
2023-01-22T21:52:08.079Z,101103.56
2023-01-22T21:54:39.050Z,101102.13
2023-01-22T21:57:09.274Z,101109.09
2023-01-22T21:59:37.514Z,101113.38
2023-01-22T22:02:06.899Z,101124.91
2023-01-22T22:04:35.298Z,101130.91
2023-01-22T22:07:03.295Z,101126.38
2023-01-22T22:09:31.613Z,101134.69
2023-01-22T22:12:00.968Z,101132.41
2023-01-22T22:14:30.361Z,101144.22
2023-01-22T22:16:59.271Z,101132.75
2023-01-22T22:19:29.080Z,101128.06
2023-01-22T22:21:57.188Z,101137.59
2023-01-22T22:24:25.642Z,101133.13
2023-01-22T22:26:53.509Z,101137.53
2023-01-22T22:29:21.713Z,101141.41
2023-01-22T22:31:49.656Z,101144.84
2023-01-22T22:34:18.925Z,101138.97
2023-01-22T22:36:46.828Z,101145.03
2023-01-22T22:39:15.117Z,101148.81
2023-01-22T22:41:43.033Z,101144.50
2023-01-22T22:44:11.810Z,101139.25
2023-01-22T22:46:39.912Z,101137.34
2023-01-22T22:49:12.246Z,101146.41
2023-01-22T22:51:42.975Z,101136.66
2023-01-22T22:54:20.363Z,101137.88
2023-01-22T22:56:49.932Z,101140.75
2023-01-22T22:59:21.287Z,101131.59
2023-01-22T23:01:50.215Z,101128.59
2023-01-22T23:04:18.554Z,101135.50
2023-01-22T23:06:47.385Z,101128.09
2023-01-22T23:09:19.853Z,101132.75
2023-01-22T23:11:52.104Z,101123.84
2023-01-22T23:14:20.458Z,101130.44
2023-01-22T23:16:49.146Z,101129.88
2023-01-22T23:19:24.722Z,101119.25
2023-01-22T23:21:56.696Z,101132.53
2023-01-22T23:24:25.644Z,101131.06
2023-01-22T23:26:53.736Z,101134.28
2023-01-22T23:29:24.663Z,101133.78
2023-01-22T23:31:53.066Z,101125.31
2023-01-22T23:34:22.091Z,101112.63
2023-01-22T23:36:51.069Z,101104.59
2023-01-22T23:39:21.002Z,101107.38
2023-01-22T23:41:49.209Z,101103.31
2023-01-22T23:44:17.892Z,101098.25
2023-01-22T23:46:46.073Z,101087.16
2023-01-22T23:49:14.499Z,101088.72
2023-01-22T23:51:44.672Z,101094.09
2023-01-22T23:54:13.205Z,101102.13
2023-01-22T23:56:41.109Z,101105.69
2023-01-22T23:59:11.451Z,101107.06
